Latest Weather Observations for Charlton

IDV60801

Issued at 3:52 pm EST Wednesday 20 June 2018 (issued every 10 minutes, with the page automatically refreshed every 10 minutes)

About weather observations | Map of weather stations | Latest weather observations for VIC | Other Formats
Station Details ID: 080128 Name: CHARLTON Lat: -36.28 Lon: 143.33 Height: 131.7 m
Data from the previous 72 hours. | See also: Recent months at Charlton
Date/Time
EST
Temp
°C
App
Temp
°C
Dew
Point
°C
Rel
Hum
%
Delta-T
°C
Wind Press
QNH
hPa
Press
MSL
hPa
Rain since
9am
mm
Dir  Spd
km/h
Gust
km/h
Spd
kts
Gust
kts
20/03:30pm 11.3 9.0 5.6 68 2.7 NNE 7 13 4 7 1026.6 1026.8 0.0
20/03:00pm 11.2 9.2 6.1 71 2.4 ENE 6 7 3 4 1026.8 1027.0 0.0
20/02:30pm 10.9 8.7 6.1 72 2.3 NE 7 11 4 6 1026.7 1026.9 0.0
20/02:00pm 10.3 7.6 5.7 73 2.1 NNE 9 11 5 6 1026.9 1027.1 0.0
20/01:30pm 10.2 7.5 5.4 72 2.2 NNE 9 13 5 7 1027.1 1027.3 0.0
20/01:00pm 9.9 7.1 5.3 73 2.1 NNE 9 15 5 8 1027.6 1027.8 0.0
20/12:30pm 9.7 7.0 5.5 75 1.9 NNE 9 13 5 7 1027.8 1028.0 0.0
20/12:00pm 9.5 6.4 5.5 76 1.8 NNE 11 15 6 8 1028.0 1028.2 0.0
20/11:30am 9.0 5.4 4.8 75 1.9 NNE 13 17 7 9 1028.4 1028.6 0.0
20/11:00am 8.5 4.8 4.7 77 1.7 NNE 13 20 7 11 1028.6 1028.8 0.0
20/10:30am 7.7 4.4 4.3 79 1.5 NNE 11 17 6 9 1028.6 1028.8 0.0
20/10:00am 7.2 3.8 4.0 80 1.4 NE 11 17 6 9 1028.5 1028.7 0.0
20/09:30am 6.8 3.7 3.8 81 1.3 NE 9 15 5 8 1028.7 1028.9 0.0
20/09:00am 5.8 2.6 3.3 84 1.0 NE 9 13 5 7 1028.4 1028.6 0.0
20/08:30am 5.0 2.2 3.0 87 0.8 NE 7 11 4 6 1028.1 1028.3 0.0
20/08:00am 4.2 1.3 2.7 90 0.6 NE 7 9 4 5 1027.7 1027.9 0.0
20/07:30am 4.1 1.2 2.6 90 0.6 NE 7 9 4 5 1027.6 1027.8 0.0
20/07:00am 3.7 0.5 3.1 96 0.2 ENE 9 11 5 6 1027.6 1027.8 0.0
20/06:30am 2.7 0.2 1.5 92 0.5 NE 4 7 2 4 1027.6 1027.8 0.0
20/06:00am 3.9 1.1 2.9 93 0.4 NE 7 9 4 5 1027.4 1027.6 0.0
20/05:30am 3.0 0.0 2.3 95 0.3 NE 7 11 4 6 1027.1 1027.3 0.0
20/05:00am 2.8 0.0 1.8 93 0.4 NE 6 9 3 5 1027.1 1027.3 0.0
20/04:30am 3.4 0.6 2.1 91 0.5 NNE 6 6 3 3 1027.2 1027.4 0.0
20/04:00am 3.9 1.0 2.4 90 0.6 NE 7 9 4 5 1027.2 1027.4 0.0
20/03:30am 4.4 1.7 3.5 94 0.4 NE 7 9 4 5 1027.2 1027.4 0.0
20/03:00am 3.8 1.1 2.8 93 0.4 NE 6 7 3 4 1027.1 1027.3 0.0
20/02:30am 3.8 1.0 3.2 96 0.2 NNE 7 9 4 5 1026.8 1027.0 0.0
20/02:00am 3.3 0.4 2.6 95 0.3 NE 7 9 4 5 1026.6 1026.8 0.0
20/01:30am 2.5 -0.5 0.7 88 0.7 NE 6 7 3 4 1026.8 1027.0 0.0
20/01:00am 4.9 2.0 2.8 86 0.9 NE 7 11 4 6 1026.9 1027.1 0.0
20/12:30am 4.9 2.0 2.8 86 0.9 NE 7 9 4 5 1027.0 1027.2 0.0
20/12:00am 5.2 2.4 2.9 85 0.9 NE 7 9 4 5 1026.7 1026.9 0.0
 
Date/Time
EST
Temp
°C
App
Temp
°C
Dew
Point
°C
Rel
Hum
%
Delta-T
°C
Wind Press
QNH
hPa
Press
MSL
hPa
Rain since
9am
mm
Dir  Spd
km/h
Gust
km/h
Spd
kts
Gust
kts
19/11:30pm 5.4 2.6 3.4 87 0.8 NE 7 11 4 6 1026.8 1027.0 0.0
19/11:00pm 4.4 1.6 3.1 91 0.5 NNE 7 7 4 4 1027.1 1027.3 0.0
19/10:30pm 4.7 2.4 2.9 88 0.7 NNE 4 6 2 3 1026.9 1027.1 0.0
19/10:00pm 5.1 2.2 2.8 85 0.9 NE 7 9 4 5 1026.9 1027.1 0.0
19/09:30pm 6.3 3.5 3.3 81 1.3 NE 7 11 4 6 1027.2 1027.4 0.0
19/09:00pm 5.2 2.4 3.4 88 0.7 NNE 7 9 4 5 1027.4 1027.6 0.0
19/08:30pm 5.1 2.5 3.0 86 0.9 NNE 6 7 3 4 1027.7 1027.9 0.0
19/08:00pm 6.8 4.0 3.2 78 1.5 NE 7 9 4 5 1027.3 1027.5 0.0
19/07:30pm 6.6 3.6 4.3 85 1.0 NE 9 11 5 6 1027.4 1027.6 0.0
19/07:00pm 5.4 2.9 3.6 88 0.8 NE 6 7 3 4 1027.7 1027.9 0.0
19/06:30pm 5.9 4.5 3.6 85 1.0 CALM 0 0 0 0 1027.5 1027.7 0.0
19/06:00pm 6.7 4.2 3.7 81 1.3 NNE 6 7 3 4 1027.1 1027.3 0.0
19/05:30pm 8.1 6.7 3.6 73 1.9 CALM 0 0 0 0 1027.1 1027.3 0.0
19/05:00pm 10.6 9.2 3.6 62 3.1 CALM 0 6 0 3 1026.7 1026.9 0.0
19/04:30pm 11.4 8.6 3.4 58 3.5 NNE 7 9 4 5 1026.2 1026.5 0.0
19/04:00pm 11.8 9.0 3.3 56 3.8 N 7 11 4 6 1026.2 1026.5 0.0
19/03:30pm 12.3 9.0 2.7 52 4.2 NNE 9 17 5 9 1026.2 1026.5 0.0
19/03:00pm 13.0 9.6 3.9 54 4.1 NE 11 15 6 8 1026.1 1026.4 0.0
19/02:30pm 12.0 8.4 3.0 54 4.0 NE 11 17 6 9 1026.1 1026.4 0.0
19/02:00pm 12.4 8.9 3.6 55 3.9 NE 11 19 6 10 1026.1 1026.4 0.0
19/01:30pm 11.6 8.1 3.6 58 3.6 NE 11 17 6 9 1026.7 1026.9 0.0
19/01:00pm 10.8 7.7 3.6 61 3.2 NE 9 15 5 8 1027.1 1027.3 0.0
19/12:30pm 11.6 8.7 4.6 62 3.2 E 9 17 5 9 1027.5 1027.7 0.0
19/12:00pm 10.6 8.3 4.7 67 2.7 NW 6 7 3 4 1028.4 1028.6 0.0
19/11:30am 10.1 7.7 4.3 67 2.6 W 6 9 3 5 1029.1 1029.3 0.0
19/11:00am 9.5 7.6 4.7 72 2.1 WSW 4 9 2 5 1029.3 1029.5 0.0
19/10:30am 9.0 7.8 4.6 74 2.0 CALM 0 0 0 0 1028.9 1029.1 0.0
19/10:00am 8.2 6.3 5.0 80 1.4 S 4 9 2 5 1028.8 1029.0 0.0
19/09:30am 6.5 4.2 5.0 90 0.7 SW 6 7 3 4 1028.2 1028.4 0.0
19/09:00am 5.2 1.5 4.2 93 0.4 ESE 13 20 7 11 1027.3 1027.5 0.0
19/08:30am 3.2 -1.1 3.1 99 0.0 ESE 15 24 8 13 1027.0 1027.2 0.0
19/08:00am 2.1 -2.8 2.0 99 0.0 ESE 17 20 9 11 1027.2 1027.4 0.0
19/07:30am 0.7 -2.9 0.6 99 0.0 ESE 9 11 5 6 1027.6 1027.8 0.0
19/07:00am 0.2 -2.1 0.1 99 0.0 SSE 2 9 1 5 1027.9 1028.1 0.0
19/06:30am -0.2 -3.0 -0.3 99 0.0 SE 4 9 2 5 1028.4 1028.6 0.0
19/06:00am 0.4 -1.9 0.3 99 0.0 SW 2 6 1 3 1028.8 1029.0 0.0
19/05:30am 0.6 -2.1 0.5 99 0.0 W 4 7 2 4 1028.5 1028.7 0.0
19/05:00am 1.3 -1.3 1.2 99 0.0 SW 4 6 2 3 1028.2 1028.4 0.0
19/04:30am 0.9 -1.0 0.8 99 0.0 CALM 0 6 0 3 1027.7 1027.9 0.0
19/04:00am 0.9 -2.7 0.8 99 0.0 SSE 9 11 5 6 1027.5 1027.7 0.0
19/03:30am 1.4 -0.8 1.3 99 0.0 S 2 7 1 4 1027.7 1027.9 0.0
19/03:00am 1.2 -1.0 1.1 99 0.0 SSW 2 7 1 4 1028.0 1028.2 0.0
19/02:30am 1.6 -1.3 1.5 99 0.0 WSW 6 9 3 5 1028.2 1028.4 0.0
19/02:00am 1.6 -1.3 1.5 99 0.0 WSW 6 7 3 4 1027.8 1028.0 0.0
19/01:30am 1.5 -0.3 1.1 97 0.2 CALM 0 0 0 0 1027.1 1027.3 0.0
19/01:00am 1.5 -0.7 0.9 96 0.2 S 2 6 1 3 1027.4 1027.6 0.0
19/12:30am 1.9 -1.2 1.2 95 0.3 SSE 7 9 4 5 1027.3 1027.5 0.0
19/12:00am 1.8 -0.4 0.8 93 0.4 S 2 9 1 5 1027.4 1027.6 0.0
 
Date/Time
EST
Temp
°C
App
Temp
°C
Dew
Point
°C
Rel
Hum
%
Delta-T
°C
Wind Press
QNH
hPa
Press
MSL
hPa
Rain since
9am
mm
Dir  Spd
km/h
Gust
km/h
Spd
kts
Gust
kts
18/11:30pm 3.1 1.4 1.9 92 0.5 CALM 0 0 0 0 1027.4 1027.6 0.0
18/11:00pm 3.7 2.1 2.2 90 0.6 CALM 0 0 0 0 1027.4 1027.6 0.0
18/10:30pm 4.4 2.8 2.4 87 0.8 CALM 0 0 0 0 1027.7 1027.9 0.0
18/10:00pm 5.2 3.3 2.6 83 1.1 S 2 6 1 3 1028.0 1028.2 0.0
18/09:30pm 6.4 3.7 2.7 77 1.5 S 6 7 3 4 1028.3 1028.5 0.0
18/09:00pm 8.3 4.8 3.4 71 2.1 SSE 11 15 6 8 1028.1 1028.3 0.0
18/08:30pm 9.0 5.6 3.8 70 2.3 SSE 11 17 6 9 1028.1 1028.3 0.0
18/08:00pm 9.3 5.9 4.1 70 2.3 SSE 11 20 6 11 1028.0 1028.2 0.0
18/07:30pm 9.4 6.9 4.8 73 2.1 S 7 11 4 6 1027.8 1028.0 0.0
18/07:00pm 9.4 7.3 5.8 78 1.6 S 6 9 3 5 1027.6 1027.8 0.0
18/06:30pm 9.5 7.4 5.7 77 1.7 S 6 9 3 5 1027.3 1027.5 0.0
18/06:00pm 9.9 6.7 4.9 71 2.2 SSW 11 15 6 8 1027.2 1027.4 0.0
18/05:30pm 10.6 7.9 5.4 70 2.4 SSW 9 20 5 11 1027.1 1027.3 0.0
18/05:00pm 11.2 8.9 5.5 68 2.6 SSE 7 13 4 7 1027.1 1027.3 0.0
18/04:30pm 11.7 8.5 5.3 65 3.0 SSE 11 17 6 9 1026.8 1027.0 0.0
18/04:00pm 12.1 9.3 5.3 63 3.1 SSE 9 15 5 8 1026.6 1026.8 0.0
18/03:30pm 13.0 10.4 4.2 55 4.0 S 7 11 4 6 1026.2 1026.5 0.0
18/03:00pm 13.6 11.1 4.5 54 4.2 W 7 13 4 7 1026.4 1026.6 0.0
18/02:30pm 12.5 10.3 5.4 62 3.3 SW 6 9 3 5 1026.4 1026.6 0.0
18/02:00pm 12.9 9.9 4.1 55 4.0 S 9 13 5 7 1026.5 1026.7 0.0
18/01:30pm 13.0 9.9 5.4 60 3.6 S 11 19 6 10 1026.5 1026.7 0.0
18/01:00pm 13.1 9.5 5.0 58 3.8 S 13 22 7 12 1026.7 1026.9 0.0
18/12:30pm 12.7 9.1 5.1 60 3.5 S 13 20 7 11 1027.1 1027.3 0.0
18/12:00pm 12.1 7.7 5.0 62 3.3 SSE 17 26 9 14 1027.5 1027.7 0.0
18/11:30am 11.0 8.1 6.4 73 2.2 SSW 11 17 6 9 1027.6 1027.8 0.0
18/11:00am 10.1 7.9 6.4 78 1.7 SSW 7 13 4 7 1028.0 1028.2 0.0
18/10:30am 8.8 6.1 5.5 80 1.5 WSW 9 15 5 8 1027.9 1028.1 0.0
18/10:00am 7.9 5.4 4.8 81 1.4 SW 7 13 4 7 1027.8 1028.0 0.0
18/09:30am 6.4 3.9 4.6 88 0.8 SW 7 11 4 6 1027.5 1027.7 0.0
18/09:00am 4.9 1.8 3.7 92 0.5 SW 9 15 5 8 1027.2 1027.4 0.8
18/08:30am 3.7 0.2 3.4 98 0.1 SW 11 13 6 7 1027.1 1027.3 0.8
18/08:00am 2.6 -0.7 2.3 98 0.1 WNW 9 11 5 6 1026.8 1027.0 0.8
18/07:30am 2.9 0.0 2.5 97 0.2 WNW 7 11 4 6 1026.2 1026.5 0.8
18/07:00am 3.2 0.3 2.8 97 0.2 WSW 7 13 4 7 1025.8 1026.1 0.8
18/06:30am 3.6 0.4 3.2 97 0.2 WSW 9 13 5 7 1025.6 1025.9 0.8
18/06:00am 4.0 1.2 3.4 96 0.2 WSW 7 15 4 8 1025.2 1025.5 0.8
18/05:30am 4.2 1.1 3.8 97 0.2 SW 9 15 5 8 1024.9 1025.2 0.8
18/05:00am 4.2 1.5 3.8 97 0.2 SW 7 11 4 6 1025.0 1025.3 0.8
18/04:30am 4.5 1.4 3.8 95 0.3 WSW 9 13 5 7 1024.9 1025.2 0.8
18/04:00am 5.3 2.3 4.3 93 0.4 SW 9 17 5 9 1024.9 1025.2 0.8
18/03:30am 6.0 2.8 5.0 93 0.4 SW 11 19 6 10 1024.8 1025.1 0.8
18/03:00am 5.9 2.3 5.2 95 0.3 SW 13 20 7 11 1024.5 1024.8 0.8
18/02:30am 5.1 1.4 4.7 97 0.2 WSW 13 20 7 11 1024.6 1024.9 0.8
18/02:00am 4.9 2.4 4.5 97 0.2 WSW 7 11 4 6 1024.5 1024.8 0.8
18/01:30am 5.0 2.4 4.3 95 0.3 W 7 13 4 7 1024.5 1024.8 0.8
18/01:00am 5.4 2.4 4.1 91 0.6 W 9 15 5 8 1024.5 1024.8 0.8
18/12:30am 6.1 2.9 4.9 92 0.5 SW 11 19 6 10 1024.5 1024.8 0.8
18/12:00am 6.0 2.7 4.6 91 0.6 SW 11 19 6 10 1024.4 1024.7 0.8
 
Date/Time
EST
Temp
°C
App
Temp
°C
Dew
Point
°C
Rel
Hum
%
Delta-T
°C
Wind Press
QNH
hPa
Press
MSL
hPa
Rain since
9am
mm
Dir  Spd
km/h
Gust
km/h
Spd
kts
Gust
kts
17/11:30pm 6.2 2.5 4.7 90 0.7 WSW 13 24 7 13 1024.2 1024.4 0.8
17/11:00pm 6.4 3.2 4.9 90 0.7 WSW 11 19 6 10 1024.3 1024.5 0.6
17/10:30pm 7.1 3.5 5.1 87 0.9 SW 13 24 7 13 1024.1 1024.3 0.6
17/10:00pm 7.4 3.5 5.2 86 1.0 SW 15 22 8 12 1023.9 1024.1 0.6
17/09:30pm 7.5 3.2 5.1 85 1.1 SW 17 32 9 17 1023.7 1023.9 0.6
17/09:00pm 7.8 3.9 5.3 84 1.1 SW 15 26 8 14 1023.4 1023.6 0.6
17/08:30pm 7.9 3.2 5.2 83 1.2 SW 19 32 10 17 1023.1 1023.3 0.6
17/08:00pm 7.9 4.4 5.4 84 1.1 SW 13 26 7 14 1022.8 1023.0 0.6
17/07:30pm 8.7 4.9 5.6 81 1.4 SW 15 22 8 12 1022.6 1022.8 0.6
17/07:00pm 8.7 4.9 5.6 81 1.4 SW 15 28 8 15 1022.2 1022.4 0.6
17/06:30pm 8.5 4.4 6.3 86 1.0 SW 17 28 9 15 1021.5 1021.7 0.6
17/06:00pm 9.0 5.7 6.3 83 1.2 SW 13 26 7 14 1021.2 1021.4 0.6
17/05:30pm 9.3 5.5 7.4 88 0.9 SW 17 32 9 17 1021.0 1021.2 0.6
17/05:00pm 9.9 5.1 7.2 83 1.3 SSW 22 33 12 18 1020.6 1020.8 0.6
17/04:30pm 11.3 7.5 7.6 78 1.8 SW 17 32 9 17 1020.2 1020.4 0.6
17/04:00pm 11.3 7.7 8.2 81 1.5 SW 17 32 9 17 1019.8 1020.0 0.6

Other Formats:

Comma delimited format used in spreadsheet applications
http://www.bom.gov.au/fwo/IDV60801/IDV60801.94839.axf

JavaScript Object Notation format (JSON) in row-major order
http://www.bom.gov.au/fwo/IDV60801/IDV60801.94839.json